Fisher Golf — FUGD — position and weather

sailwx.info

Track history (hours):
 
Tides and Currents Weather Stations Pressure Air Temp Water Temp Dewpoint Dewpoint Depression Visibility Wind Speed Wind Dir Waves Ship Positions

Fisher Golf

Last reported at 2014-Oct-31 18:08 UTC. Time now 2014-Oct-31 19:26 UTC.
Position N 46°18' W 003°12'.

Length 20 m; draft 4 m.

Type: Fishing. MMSI: 228239000.

Date/timePositionNaut miles runAvg speedWind from/ knotsBaromVisibWave heightAir tempDewpointWater temp
2014-Oct-31 18:08N 46°18' W 003°12'0 0.0
2014-Oct-31 13:08N 46°19' W 003°12'9 2.8
2014-Oct-31 10:06N 46°17' W 003°00'2 2.9
2014-Oct-31 09:33N 46°16' W 002°58'2 2.3
2014-Oct-31 08:33N 46°14' W 002°56'2 2.1
2014-Oct-31 07:34N 46°16' W 002°59'4 2.8
2014-Oct-31 06:04N 46°17' W 003°04'1 2.7
2014-Oct-31 05:33N 46°19' W 003°04'3 2.7
2014-Oct-31 04:33N 46°21' W 003°05'2 1.9
2014-Oct-31 03:33N 46°23' W 003°07'6 2.5
2014-Oct-31 01:16N 46°26' W 003°14'2 2.8
2014-Oct-31 00:34N 46°26' W 003°12'3 3.0
2014-Oct-30 23:34N 46°24' W 003°09'5 2.6
2014-Oct-30 21:34N 46°19' W 003°05'3 2.6
2014-Oct-30 20:31N 46°17' W 003°03'3 2.8
2014-Oct-30 19:27N 46°16' W 002°59'40 4.8
2014-Oct-30 11:09N 46°00' W 002°06'8 9.8
2014-Oct-30 10:22N 45°59' W 001°55'22 9.6
2014-Oct-30 08:04N 45°55' W 001°24'3 3.7
2014-Oct-30 07:15N 45°55' W 001°20'  
2014-Oct-27 22:33N 46°26' W 003°12'2 2.0
2014-Oct-27 21:19N 46°26' W 003°16'8 0.9
2014-Oct-27 11:33N 46°24' W 003°28'3 2.5
2014-Oct-27 10:32N 46°27' W 003°28'3 2.7
2014-Oct-27 09:31N 46°30' W 003°28'5 2.5
2014-Oct-27 07:33N 46°34' W 003°29'3 2.8
2014-Oct-27 06:25N 46°36' W 003°33'3 3.0
2014-Oct-27 05:22N 46°37' W 003°38'  
2014-Oct-24 07:22N 46°27' W 003°15'  
Track history (hours):
 
Tides and Currents Weather Stations Pressure Air Temp Water Temp Dewpoint Dewpoint Depression Visibility Wind Speed Wind Dir Waves Ship Positions

Fisher Golf

Last reported at 2014-Oct-31 18:08 UTC. Time now 2014-Oct-31 19:26 UTC.
Position N 46°18' W 003°12'.

Length 20 m; draft 4 m.

Type: Fishing. MMSI: 228239000.

Date/timePositionNaut miles runAvg speedWind from/ knotsBaromVisibWave heightAir tempDewpointWater temp
2014-Oct-31 18:08N 46°18' W 003°12'0 0.0
2014-Oct-31 13:08N 46°19' W 003°12'9 2.8
2014-Oct-31 10:06N 46°17' W 003°00'2 2.9
2014-Oct-31 09:33N 46°16' W 002°58'2 2.3
2014-Oct-31 08:33N 46°14' W 002°56'2 2.1
2014-Oct-31 07:34N 46°16' W 002°59'4 2.8
2014-Oct-31 06:04N 46°17' W 003°04'1 2.7
2014-Oct-31 05:33N 46°19' W 003°04'3 2.7
2014-Oct-31 04:33N 46°21' W 003°05'2 1.9
2014-Oct-31 03:33N 46°23' W 003°07'6 2.5
2014-Oct-31 01:16N 46°26' W 003°14'2 2.8
2014-Oct-31 00:34N 46°26' W 003°12'3 3.0
2014-Oct-30 23:34N 46°24' W 003°09'5 2.6
2014-Oct-30 21:34N 46°19' W 003°05'3 2.6
2014-Oct-30 20:31N 46°17' W 003°03'3 2.8
2014-Oct-30 19:27N 46°16' W 002°59'40 4.8
2014-Oct-30 11:09N 46°00' W 002°06'8 9.8
2014-Oct-30 10:22N 45°59' W 001°55'22 9.6
2014-Oct-30 08:04N 45°55' W 001°24'3 3.7
2014-Oct-30 07:15N 45°55' W 001°20'  
2014-Oct-27 22:33N 46°26' W 003°12'2 2.0
2014-Oct-27 21:19N 46°26' W 003°16'8 0.9
2014-Oct-27 11:33N 46°24' W 003°28'3 2.5
2014-Oct-27 10:32N 46°27' W 003°28'3 2.7
2014-Oct-27 09:31N 46°30' W 003°28'5 2.5
2014-Oct-27 07:33N 46°34' W 003°29'3 2.8
2014-Oct-27 06:25N 46°36' W 003°33'3 3.0
2014-Oct-27 05:22N 46°37' W 003°38'  
2014-Oct-24 07:22N 46°27' W 003°15'  

Dump ship's entire track history